METAR AND TAF INFORMATION
METAR FOR GMME
ADDS - METARS form results

(1748 UTC 17 May 2022)
Data provider http://aviationweather.gov/metar/data/
 
METAR text: GMME 171730Z 36008KT 330V030 5000 SCT016 22/19 Q1015 NOSIG
Conditions at: GMME (RABAT/SALE (RMAF, MA) observed 1730 UTC 17 May 2022
Temperature: 22.0°C (72°F)
Dewpoint: 19.0°C (66°F) [RH = 83%]
Pressure (altimeter): 29.97 inches Hg (1015.0 mb)
Winds: from the N (360 degrees) at 9 MPH (8 knots; 4.1 m/s)
Visibility: 3 miles ( 5 km)
Ceiling: at least 12,000 feet AGL
Clouds: scattered clouds at 1600 feet AGL
Weather: no significant weather observed at this time

METAR text: GMME 171700Z 35007KT 300V030 5000 SCT016 23/18 Q1015 NOSIG
Conditions at: GMME (RABAT/SALE (RMAF, MA) observed 1700 UTC 17 May 2022
Temperature: 23.0°C (73°F)
Dewpoint: 18.0°C (64°F) [RH = 73%]
Pressure (altimeter): 29.97 inches Hg (1015.0 mb)
Winds: from the N (350 degrees) at 8 MPH (7 knots; 3.6 m/s)
Visibility: 3 miles ( 5 km)
Ceiling: at least 12,000 feet AGL
Clouds: scattered clouds at 1600 feet AGL
Weather: no significant weather observed at this time

Forecast for: GMME (RABAT/SALE (RMAF, MA)
Text: TAF GMME 171700Z 1718/1824 33007KT 5000 SCT016
Forecast period: 1800 UTC 17 May 2022 to 0000 UTC 19 May 2022
Forecast type: FROM: standard forecast or significant change
Winds: from the NNW (330 degrees) at 8 MPH (7 knots; 3.6 m/s)
Visibility: 3 miles (5 km)
Ceiling: at least 12,000 feet AGL
Clouds: scattered clouds at 1600 feet AGL
Weather: no significant weather forecast for this period
Text: PROB40
Forecast period: 2200 UTC 17 May 2022 to 0800 UTC 18 May 2022
Forecast type: TEMPORARY: The following changes expected for less than half the time period
Winds: variable direction winds at 2 MPH (2 knots; 1.0 m/s)
Visibility: 1.86 miles (2.99 km)
Ceiling: 800 feet AGL
Clouds: broken clouds at 800 feet AGL
Weather: BR  (mist)

 AIRPORT MAP

 RUNWAY INFORMATION
Runway 04 Runway length 11483 ft Runway width 148 ft
Runway elevation 273 ft Runway displaced threshold 0 ft Runway heading 31
Runway 22 Runway length 11483 ft Runway width 148 ft
Runway elevation 240 ft Runway displaced threshold 0 ft Runway heading 211

 AIRPORT FREQUENCIES
Type APP Name APP Frequency 118.9 MHZ
Type TWR Name TWR Frequency 118.3 MHZ

 AIRPORT NEAR NAVIGATION AIDS
Type VOR-DME Name Rabat Frequency 116500 KHZ
Type NDB Name Rabat Frequency 332 KHZ





Powered by Virtual Airlines Manager

Maps by Rafael Santos